sensor_id;sensor_type;location;lat;lon;timestamp;P1;durP1;ratioP1;P2;durP2;ratioP2
20705;SDS011;10514;49.468;11.044;2022-07-12T00:01:56;1.17;;;0.50;;
20705;SDS011;10514;49.468;11.044;2022-07-12T00:04:22;0.50;;;0.43;;
20705;SDS011;10514;49.468;11.044;2022-07-12T00:06:48;0.73;;;0.70;;
20705;SDS011;10514;49.468;11.044;2022-07-12T00:09:14;1.05;;;0.60;;
20705;SDS011;10514;49.468;11.044;2022-07-12T00:11:40;2.58;;;1.00;;
20705;SDS011;10514;49.468;11.044;2022-07-12T00:14:07;0.73;;;0.65;;
20705;SDS011;10514;49.468;11.044;2022-07-12T00:16:34;2.25;;;0.70;;
20705;SDS011;10514;49.468;11.044;2022-07-12T00:19:00;1.17;;;0.60;;
20705;SDS011;10514;49.468;11.044;2022-07-12T00:21:26;1.77;;;0.50;;
20705;SDS011;10514;49.468;11.044;2022-07-12T00:23:52;1.85;;;0.73;;
20705;SDS011;10514;49.468;11.044;2022-07-12T00:26:19;1.33;;;0.60;;
20705;SDS011;10514;49.468;11.044;2022-07-12T00:28:45;1.25;;;0.60;;
20705;SDS011;10514;49.468;11.044;2022-07-12T00:31:11;1.50;;;0.70;;
20705;SDS011;10514;49.468;11.044;2022-07-12T00:33:37;0.82;;;0.65;;
20705;SDS011;10514;49.468;11.044;2022-07-12T00:36:03;3.25;;;1.00;;
20705;SDS011;10514;49.468;11.044;2022-07-12T00:38:29;1.20;;;0.82;;
20705;SDS011;10514;49.468;11.044;2022-07-12T00:40:55;1.13;;;0.60;;
20705;SDS011;10514;49.468;11.044;2022-07-12T00:43:21;2.30;;;0.80;;
20705;SDS011;10514;49.468;11.044;2022-07-12T00:45:47;0.82;;;0.63;;
20705;SDS011;10514;49.468;11.044;2022-07-12T00:48:13;1.00;;;0.50;;
20705;SDS011;10514;49.468;11.044;2022-07-12T00:50:39;3.53;;;0.70;;
20705;SDS011;10514;49.468;11.044;2022-07-12T00:53:05;0.95;;;0.75;;
20705;SDS011;10514;49.468;11.044;2022-07-12T00:55:31;1.15;;;0.68;;
20705;SDS011;10514;49.468;11.044;2022-07-12T00:57:57;0.70;;;0.70;;
20705;SDS011;10514;49.468;11.044;2022-07-12T01:00:24;1.08;;;0.70;;
20705;SDS011;10514;49.468;11.044;2022-07-12T01:02:51;1.48;;;0.55;;
20705;SDS011;10514;49.468;11.044;2022-07-12T01:05:18;0.82;;;0.70;;
20705;SDS011;10514;49.468;11.044;2022-07-12T01:07:44;1.40;;;0.70;;
20705;SDS011;10514;49.468;11.044;2022-07-12T01:10:10;1.17;;;0.70;;
20705;SDS011;10514;49.468;11.044;2022-07-12T01:12:36;0.50;;;0.50;;
20705;SDS011;10514;49.468;11.044;2022-07-12T01:15:04;1.10;;;0.70;;
20705;SDS011;10514;49.468;11.044;2022-07-12T01:17:30;0.95;;;0.50;;
20705;SDS011;10514;49.468;11.044;2022-07-12T01:19:57;0.60;;;0.60;;
20705;SDS011;10514;49.468;11.044;2022-07-12T01:22:33;0.95;;;0.80;;
20705;SDS011;10514;49.468;11.044;2022-07-12T01:24:59;2.17;;;0.63;;
20705;SDS011;10514;49.468;11.044;2022-07-12T01:27:25;2.05;;;1.13;;
20705;SDS011;10514;49.468;11.044;2022-07-12T01:29:52;0.80;;;0.80;;
20705;SDS011;10514;49.468;11.044;2022-07-12T01:32:17;1.83;;;0.80;;
20705;SDS011;10514;49.468;11.044;2022-07-12T01:34:54;0.60;;;0.60;;
20705;SDS011;10514;49.468;11.044;2022-07-12T01:37:24;2.22;;;0.90;;
20705;SDS011;10514;49.468;11.044;2022-07-12T01:39:53;0.98;;;0.70;;
20705;SDS011;10514;49.468;11.044;2022-07-12T01:42:20;3.58;;;1.05;;
20705;SDS011;10514;49.468;11.044;2022-07-12T01:44:46;1.15;;;0.82;;
20705;SDS011;10514;49.468;11.044;2022-07-12T01:47:12;1.05;;;0.80;;
20705;SDS011;10514;49.468;11.044;2022-07-12T01:49:38;2.85;;;0.98;;
20705;SDS011;10514;49.468;11.044;2022-07-12T01:52:04;0.85;;;0.73;;
20705;SDS011;10514;49.468;11.044;2022-07-12T01:54:30;1.13;;;0.98;;
20705;SDS011;10514;49.468;11.044;2022-07-12T01:56:56;1.15;;;0.73;;
20705;SDS011;10514;49.468;11.044;2022-07-12T01:59:22;0.98;;;0.70;;
20705;SDS011;10514;49.468;11.044;2022-07-12T02:01:48;3.10;;;1.10;;
20705;SDS011;10514;49.468;11.044;2022-07-12T02:04:17;2.25;;;0.98;;
20705;SDS011;10514;49.468;11.044;2022-07-12T02:06:44;1.63;;;0.90;;
20705;SDS011;10514;49.468;11.044;2022-07-12T02:09:13;1.45;;;0.90;;
20705;SDS011;10514;49.468;11.044;2022-07-12T02:11:40;0.85;;;0.70;;
20705;SDS011;10514;49.468;11.044;2022-07-12T02:14:06;1.13;;;0.80;;
20705;SDS011;10514;49.468;11.044;2022-07-12T02:16:32;1.27;;;0.80;;
20705;SDS011;10514;49.468;11.044;2022-07-12T02:18:58;6.03;;;0.90;;
20705;SDS011;10514;49.468;11.044;2022-07-12T02:21:24;1.60;;;1.00;;
20705;SDS011;10514;49.468;11.044;2022-07-12T02:23:50;1.27;;;0.80;;
20705;SDS011;10514;49.468;11.044;2022-07-12T02:26:16;1.42;;;0.90;;
20705;SDS011;10514;49.468;11.044;2022-07-12T02:28:43;1.25;;;0.90;;
20705;SDS011;10514;49.468;11.044;2022-07-12T02:31:09;2.00;;;1.00;;
20705;SDS011;10514;49.468;11.044;2022-07-12T02:33:35;1.00;;;0.90;;
20705;SDS011;10514;49.468;11.044;2022-07-12T02:36:01;1.10;;;0.82;;
20705;SDS011;10514;49.468;11.044;2022-07-12T02:38:27;0.80;;;0.63;;
20705;SDS011;10514;49.468;11.044;2022-07-12T02:40:53;1.40;;;0.98;;
20705;SDS011;10514;49.468;11.044;2022-07-12T02:45:45;1.42;;;1.00;;
20705;SDS011;10514;49.468;11.044;2022-07-12T02:48:11;1.27;;;0.95;;
20705;SDS011;10514;49.468;11.044;2022-07-12T02:50:40;1.65;;;1.00;;
20705;SDS011;10514;49.468;11.044;2022-07-12T02:53:06;1.08;;;0.90;;
20705;SDS011;10514;49.468;11.044;2022-07-12T02:55:32;1.30;;;0.85;;
20705;SDS011;10514;49.468;11.044;2022-07-12T02:57:58;1.70;;;0.90;;
20705;SDS011;10514;49.468;11.044;2022-07-12T03:00:25;1.58;;;1.10;;
20705;SDS011;10514;49.468;11.044;2022-07-12T03:02:51;1.10;;;1.00;;
20705;SDS011;10514;49.468;11.044;2022-07-12T03:05:17;1.15;;;0.98;;
20705;SDS011;10514;49.468;11.044;2022-07-12T03:07:43;1.20;;;0.85;;
20705;SDS011;10514;49.468;11.044;2022-07-12T03:10:09;1.48;;;1.02;;
20705;SDS011;10514;49.468;11.044;2022-07-12T03:12:36;1.55;;;1.20;;
20705;SDS011;10514;49.468;11.044;2022-07-12T03:15:02;2.25;;;0.80;;
20705;SDS011;10514;49.468;11.044;2022-07-12T03:17:28;1.20;;;1.00;;
20705;SDS011;10514;49.468;11.044;2022-07-12T03:19:53;1.65;;;0.95;;
20705;SDS011;10514;49.468;11.044;2022-07-12T03:22:19;1.20;;;1.00;;
20705;SDS011;10514;49.468;11.044;2022-07-12T03:24:45;1.88;;;0.95;;
20705;SDS011;10514;49.468;11.044;2022-07-12T03:27:11;2.35;;;1.08;;
20705;SDS011;10514;49.468;11.044;2022-07-12T03:29:37;1.55;;;1.10;;
20705;SDS011;10514;49.468;11.044;2022-07-12T03:32:04;1.00;;;0.90;;
20705;SDS011;10514;49.468;11.044;2022-07-12T03:34:31;1.75;;;0.90;;
20705;SDS011;10514;49.468;11.044;2022-07-12T03:36:57;2.03;;;1.20;;
20705;SDS011;10514;49.468;11.044;2022-07-12T03:39:22;1.42;;;1.00;;
20705;SDS011;10514;49.468;11.044;2022-07-12T03:41:48;4.15;;;1.48;;
20705;SDS011;10514;49.468;11.044;2022-07-12T03:44:14;1.77;;;1.17;;
20705;SDS011;10514;49.468;11.044;2022-07-12T03:46:40;1.73;;;1.38;;
20705;SDS011;10514;49.468;11.044;2022-07-12T03:49:06;1.92;;;0.90;;
20705;SDS011;10514;49.468;11.044;2022-07-12T03:51:32;1.65;;;1.08;;
20705;SDS011;10514;49.468;11.044;2022-07-12T03:53:57;2.28;;;1.10;;
20705;SDS011;10514;49.468;11.044;2022-07-12T03:56:24;2.08;;;1.33;;
20705;SDS011;10514;49.468;11.044;2022-07-12T03:59:08;1.95;;;1.30;;
20705;SDS011;10514;49.468;11.044;2022-07-12T04:01:34;1.10;;;1.00;;
20705;SDS011;10514;49.468;11.044;2022-07-12T04:04:00;2.92;;;1.42;;
20705;SDS011;10514;49.468;11.044;2022-07-12T04:06:27;1.85;;;1.27;;
20705;SDS011;10514;49.468;11.044;2022-07-12T04:08:53;2.35;;;1.65;;
20705;SDS011;10514;49.468;11.044;2022-07-12T04:11:19;3.35;;;1.60;;
20705;SDS011;10514;49.468;11.044;2022-07-12T04:13:45;1.55;;;1.35;;
20705;SDS011;10514;49.468;11.044;2022-07-12T04:16:11;2.88;;;1.67;;
20705;SDS011;10514;49.468;11.044;2022-07-12T04:18:37;1.70;;;1.23;;
20705;SDS011;10514;49.468;11.044;2022-07-12T04:21:03;3.65;;;1.88;;
20705;SDS011;10514;49.468;11.044;2022-07-12T04:23:29;1.88;;;1.52;;
20705;SDS011;10514;49.468;11.044;2022-07-12T04:25:55;1.55;;;1.17;;
20705;SDS011;10514;49.468;11.044;2022-07-12T04:28:20;4.60;;;1.38;;
20705;SDS011;10514;49.468;11.044;2022-07-12T04:30:47;2.13;;;1.52;;
20705;SDS011;10514;49.468;11.044;2022-07-12T04:33:14;2.30;;;1.83;;
20705;SDS011;10514;49.468;11.044;2022-07-12T04:35:40;4.20;;;1.30;;
20705;SDS011;10514;49.468;11.044;2022-07-12T04:38:06;1.73;;;1.30;;
20705;SDS011;10514;49.468;11.044;2022-07-12T04:40:33;1.60;;;1.33;;
20705;SDS011;10514;49.468;11.044;2022-07-12T04:42:59;3.08;;;1.80;;
20705;SDS011;10514;49.468;11.044;2022-07-12T04:45:25;1.80;;;1.20;;
20705;SDS011;10514;49.468;11.044;2022-07-12T04:47:51;1.73;;;1.58;;
20705;SDS011;10514;49.468;11.044;2022-07-12T04:50:17;3.88;;;1.48;;
20705;SDS011;10514;49.468;11.044;2022-07-12T04:52:43;1.80;;;1.48;;
20705;SDS011;10514;49.468;11.044;2022-07-12T04:55:09;1.92;;;1.23;;
20705;SDS011;10514;49.468;11.044;2022-07-12T04:57:35;1.65;;;1.25;;
20705;SDS011;10514;49.468;11.044;2022-07-12T05:00:02;1.77;;;1.30;;
20705;SDS011;10514;49.468;11.044;2022-07-12T05:02:28;2.50;;;1.50;;
20705;SDS011;10514;49.468;11.044;2022-07-12T05:04:54;1.70;;;1.30;;
20705;SDS011;10514;49.468;11.044;2022-07-12T05:07:20;5.18;;;1.75;;
20705;SDS011;10514;49.468;11.044;2022-07-12T05:09:46;2.28;;;1.38;;
20705;SDS011;10514;49.468;11.044;2022-07-12T05:12:12;3.15;;;1.40;;
20705;SDS011;10514;49.468;11.044;2022-07-12T05:14:38;1.95;;;1.20;;
20705;SDS011;10514;49.468;11.044;2022-07-12T05:17:04;2.35;;;1.42;;
20705;SDS011;10514;49.468;11.044;2022-07-12T05:19:29;4.32;;;1.73;;
20705;SDS011;10514;49.468;11.044;2022-07-12T05:21:55;1.50;;;1.38;;
20705;SDS011;10514;49.468;11.044;2022-07-12T05:24:21;3.50;;;1.67;;
20705;SDS011;10514;49.468;11.044;2022-07-12T05:26:47;1.40;;;1.15;;
20705;SDS011;10514;49.468;11.044;2022-07-12T05:29:13;1.67;;;1.50;;
20705;SDS011;10514;49.468;11.044;2022-07-12T05:31:39;2.78;;;1.30;;
20705;SDS011;10514;49.468;11.044;2022-07-12T05:34:05;1.52;;;1.30;;
20705;SDS011;10514;49.468;11.044;2022-07-12T05:36:31;1.27;;;1.00;;
20705;SDS011;10514;49.468;11.044;2022-07-12T05:38:57;3.13;;;1.20;;
20705;SDS011;10514;49.468;11.044;2022-07-12T05:41:22;2.20;;;1.10;;
20705;SDS011;10514;49.468;11.044;2022-07-12T05:43:48;2.63;;;1.30;;
20705;SDS011;10514;49.468;11.044;2022-07-12T05:46:15;1.40;;;1.00;;
20705;SDS011;10514;49.468;11.044;2022-07-12T05:48:40;2.15;;;1.10;;
20705;SDS011;10514;49.468;11.044;2022-07-12T05:51:06;1.40;;;1.20;;
20705;SDS011;10514;49.468;11.044;2022-07-12T05:53:51;3.05;;;1.02;;
20705;SDS011;10514;49.468;11.044;2022-07-12T05:56:17;3.83;;;1.23;;
20705;SDS011;10514;49.468;11.044;2022-07-12T05:58:43;1.05;;;0.95;;
20705;SDS011;10514;49.468;11.044;2022-07-12T06:01:08;1.88;;;1.30;;
20705;SDS011;10514;49.468;11.044;2022-07-12T06:03:34;1.85;;;1.10;;
20705;SDS011;10514;49.468;11.044;2022-07-12T06:06:00;2.25;;;1.00;;
20705;SDS011;10514;49.468;11.044;2022-07-12T06:08:26;1.45;;;1.13;;
20705;SDS011;10514;49.468;11.044;2022-07-12T06:10:52;1.25;;;1.10;;
20705;SDS011;10514;49.468;11.044;2022-07-12T06:13:18;2.03;;;1.30;;
20705;SDS011;10514;49.468;11.044;2022-07-12T06:15:44;2.45;;;1.00;;
20705;SDS011;10514;49.468;11.044;2022-07-12T06:18:10;2.10;;;1.05;;
20705;SDS011;10514;49.468;11.044;2022-07-12T06:20:36;1.80;;;1.30;;
20705;SDS011;10514;49.468;11.044;2022-07-12T06:23:02;3.95;;;1.20;;
20705;SDS011;10514;49.468;11.044;2022-07-12T06:25:28;3.22;;;1.60;;
20705;SDS011;10514;49.468;11.044;2022-07-12T06:27:54;2.55;;;1.00;;
20705;SDS011;10514;49.468;11.044;2022-07-12T06:30:20;1.73;;;0.80;;
20705;SDS011;10514;49.468;11.044;2022-07-12T06:32:47;1.50;;;0.80;;
20705;SDS011;10514;49.468;11.044;2022-07-12T06:35:14;1.45;;;0.60;;
20705;SDS011;10514;49.468;11.044;2022-07-12T06:37:40;1.67;;;0.80;;
20705;SDS011;10514;49.468;11.044;2022-07-12T06:40:07;1.88;;;0.82;;
20705;SDS011;10514;49.468;11.044;2022-07-12T06:42:33;2.80;;;1.00;;
20705;SDS011;10514;49.468;11.044;2022-07-12T06:44:59;2.13;;;0.90;;
20705;SDS011;10514;49.468;11.044;2022-07-12T06:47:25;4.30;;;0.82;;
20705;SDS011;10514;49.468;11.044;2022-07-12T06:49:51;1.30;;;0.90;;
20705;SDS011;10514;49.468;11.044;2022-07-12T06:52:16;2.65;;;1.33;;
20705;SDS011;10514;49.468;11.044;2022-07-12T06:54:43;0.98;;;0.93;;
20705;SDS011;10514;49.468;11.044;2022-07-12T06:57:08;1.73;;;0.80;;
20705;SDS011;10514;49.468;11.044;2022-07-12T06:59:34;1.40;;;0.80;;
20705;SDS011;10514;49.468;11.044;2022-07-12T07:02:00;2.13;;;0.80;;
20705;SDS011;10514;49.468;11.044;2022-07-12T07:04:26;4.32;;;0.70;;
20705;SDS011;10514;49.468;11.044;2022-07-12T07:06:52;1.17;;;0.68;;
20705;SDS011;10514;49.468;11.044;2022-07-12T07:09:18;2.60;;;0.80;;
20705;SDS011;10514;49.468;11.044;2022-07-12T07:11:44;2.10;;;0.70;;
20705;SDS011;10514;49.468;11.044;2022-07-12T07:14:10;0.65;;;0.65;;
20705;SDS011;10514;49.468;11.044;2022-07-12T07:16:36;1.48;;;0.70;;
20705;SDS011;10514;49.468;11.044;2022-07-12T07:19:02;1.38;;;0.60;;
20705;SDS011;10514;49.468;11.044;2022-07-12T07:21:29;0.88;;;0.60;;
20705;SDS011;10514;49.468;11.044;2022-07-12T07:23:55;1.20;;;0.75;;
20705;SDS011;10514;49.468;11.044;2022-07-12T07:26:20;1.90;;;0.70;;
20705;SDS011;10514;49.468;11.044;2022-07-12T07:28:47;4.82;;;0.80;;
20705;SDS011;10514;49.468;11.044;2022-07-12T07:31:35;0.73;;;0.60;;
20705;SDS011;10514;49.468;11.044;2022-07-12T07:34:02;0.80;;;0.80;;
20705;SDS011;10514;49.468;11.044;2022-07-12T07:36:28;2.15;;;0.70;;
20705;SDS011;10514;49.468;11.044;2022-07-12T07:38:53;1.83;;;0.80;;
20705;SDS011;10514;49.468;11.044;2022-07-12T07:41:19;1.60;;;0.70;;
20705;SDS011;10514;49.468;11.044;2022-07-12T07:43:45;1.63;;;1.00;;
20705;SDS011;10514;49.468;11.044;2022-07-12T07:46:11;3.80;;;0.93;;
20705;SDS011;10514;49.468;11.044;2022-07-12T07:48:38;1.52;;;0.90;;
20705;SDS011;10514;49.468;11.044;2022-07-12T07:51:03;2.95;;;0.73;;
20705;SDS011;10514;49.468;11.044;2022-07-12T07:53:29;2.97;;;0.90;;
20705;SDS011;10514;49.468;11.044;2022-07-12T07:55:55;2.78;;;1.00;;
20705;SDS011;10514;49.468;11.044;2022-07-12T07:58:21;2.03;;;0.90;;
20705;SDS011;10514;49.468;11.044;2022-07-12T08:00:49;1.40;;;0.90;;
20705;SDS011;10514;49.468;11.044;2022-07-12T08:03:15;2.20;;;0.80;;
20705;SDS011;10514;49.468;11.044;2022-07-12T08:05:41;1.85;;;0.75;;
20705;SDS011;10514;49.468;11.044;2022-07-12T08:08:07;1.35;;;0.70;;
20705;SDS011;10514;49.468;11.044;2022-07-12T08:10:33;1.08;;;0.60;;
20705;SDS011;10514;49.468;11.044;2022-07-12T08:12:59;2.10;;;0.77;;
20705;SDS011;10514;49.468;11.044;2022-07-12T08:15:25;2.65;;;0.70;;
20705;SDS011;10514;49.468;11.044;2022-07-12T08:17:51;1.05;;;0.70;;
20705;SDS011;10514;49.468;11.044;2022-07-12T08:20:17;0.70;;;0.50;;
20705;SDS011;10514;49.468;11.044;2022-07-12T08:22:43;0.60;;;0.60;;
20705;SDS011;10514;49.468;11.044;2022-07-12T08:25:12;1.00;;;0.60;;
20705;SDS011;10514;49.468;11.044;2022-07-12T08:27:38;0.70;;;0.60;;
20705;SDS011;10514;49.468;11.044;2022-07-12T08:30:04;1.00;;;0.50;;
20705;SDS011;10514;49.468;11.044;2022-07-12T08:32:31;2.03;;;0.60;;
20705;SDS011;10514;49.468;11.044;2022-07-12T08:34:57;0.85;;;0.68;;
20705;SDS011;10514;49.468;11.044;2022-07-12T08:37:22;2.60;;;0.50;;
20705;SDS011;10514;49.468;11.044;2022-07-12T08:39:48;1.58;;;0.60;;
20705;SDS011;10514;49.468;11.044;2022-07-12T08:42:14;3.63;;;0.70;;
20705;SDS011;10514;49.468;11.044;2022-07-12T08:44:42;1.65;;;0.60;;
20705;SDS011;10514;49.468;11.044;2022-07-12T08:47:08;1.95;;;0.70;;
20705;SDS011;10514;49.468;11.044;2022-07-12T08:49:35;1.02;;;0.55;;
20705;SDS011;10514;49.468;11.044;2022-07-12T08:52:09;0.65;;;0.50;;
20705;SDS011;10514;49.468;11.044;2022-07-12T08:54:46;0.40;;;0.40;;
20705;SDS011;10514;49.468;11.044;2022-07-12T08:57:12;1.45;;;0.40;;
20705;SDS011;10514;49.468;11.044;2022-07-12T09:00:00;1.30;;;0.60;;
20705;SDS011;10514;49.468;11.044;2022-07-12T09:02:27;0.68;;;0.60;;
20705;SDS011;10514;49.468;11.044;2022-07-12T09:05:05;1.45;;;0.50;;
20705;SDS011;10514;49.468;11.044;2022-07-12T09:07:34;1.30;;;0.60;;
20705;SDS011;10514;49.468;11.044;2022-07-12T09:10:07;1.25;;;0.63;;
20705;SDS011;10514;49.468;11.044;2022-07-12T09:12:34;0.43;;;0.43;;
20705;SDS011;10514;49.468;11.044;2022-07-12T09:15:16;0.70;;;0.50;;
20705;SDS011;10514;49.468;11.044;2022-07-12T09:18:03;1.63;;;0.50;;
20705;SDS011;10514;49.468;11.044;2022-07-12T09:20:31;2.70;;;0.63;;
20705;SDS011;10514;49.468;11.044;2022-07-12T09:22:58;3.88;;;0.50;;
20705;SDS011;10514;49.468;11.044;2022-07-12T09:25:24;1.38;;;0.50;;
20705;SDS011;10514;49.468;11.044;2022-07-12T09:27:52;2.42;;;0.70;;
20705;SDS011;10514;49.468;11.044;2022-07-12T09:30:19;0.85;;;0.60;;
20705;SDS011;10514;49.468;11.044;2022-07-12T09:32:52;0.70;;;0.60;;
20705;SDS011;10514;49.468;11.044;2022-07-12T09:35:38;2.90;;;0.50;;
20705;SDS011;10514;49.468;11.044;2022-07-12T09:38:23;0.32;;;0.32;;
20705;SDS011;10514;49.468;11.044;2022-07-12T09:40:49;0.32;;;0.32;;
20705;SDS011;10514;49.468;11.044;2022-07-12T09:43:15;1.05;;;0.73;;
20705;SDS011;10514;49.468;11.044;2022-07-12T09:45:42;0.73;;;0.50;;
20705;SDS011;10514;49.468;11.044;2022-07-12T09:48:09;1.73;;;0.40;;
20705;SDS011;10514;49.468;11.044;2022-07-12T09:50:44;0.40;;;0.40;;
20705;SDS011;10514;49.468;11.044;2022-07-12T09:53:12;1.50;;;0.52;;
20705;SDS011;10514;49.468;11.044;2022-07-12T09:55:49;2.05;;;0.30;;
20705;SDS011;10514;49.468;11.044;2022-07-12T09:58:17;0.70;;;0.60;;
20705;SDS011;10514;49.468;11.044;2022-07-12T10:00:46;0.65;;;0.38;;
20705;SDS011;10514;49.468;11.044;2022-07-12T10:03:15;2.92;;;0.40;;
20705;SDS011;10514;49.468;11.044;2022-07-12T10:05:41;0.60;;;0.47;;
20705;SDS011;10514;49.468;11.044;2022-07-12T10:08:10;1.55;;;1.15;;
20705;SDS011;10514;49.468;11.044;2022-07-12T10:10:36;1.33;;;0.77;;
20705;SDS011;10514;49.468;11.044;2022-07-12T10:13:02;3.42;;;0.60;;
20705;SDS011;10514;49.468;11.044;2022-07-12T10:15:28;2.55;;;0.50;;
20705;SDS011;10514;49.468;11.044;2022-07-12T10:17:56;1.00;;;0.45;;
20705;SDS011;10514;49.468;11.044;2022-07-12T10:20:24;0.40;;;0.40;;
20705;SDS011;10514;49.468;11.044;2022-07-12T10:22:52;0.38;;;0.38;;
20705;SDS011;10514;49.468;11.044;2022-07-12T10:27:54;1.48;;;0.43;;
20705;SDS011;10514;49.468;11.044;2022-07-12T10:30:21;2.60;;;0.45;;
20705;SDS011;10514;49.468;11.044;2022-07-12T10:32:48;1.65;;;0.30;;
20705;SDS011;10514;49.468;11.044;2022-07-12T10:35:16;1.17;;;0.43;;
20705;SDS011;10514;49.468;11.044;2022-07-12T10:40:37;1.70;;;0.43;;
20705;SDS011;10514;49.468;11.044;2022-07-12T10:45:30;0.47;;;0.47;;
20705;SDS011;10514;49.468;11.044;2022-07-12T10:48:04;0.70;;;0.60;;
20705;SDS011;10514;49.468;11.044;2022-07-12T10:53:33;1.75;;;0.45;;
20705;SDS011;10514;49.468;11.044;2022-07-12T10:56:12;0.65;;;0.43;;
20705;SDS011;10514;49.468;11.044;2022-07-12T11:01:14;0.60;;;0.40;;
20705;SDS011;10514;49.468;11.044;2022-07-12T11:06:16;0.75;;;0.60;;
20705;SDS011;10514;49.468;11.044;2022-07-12T11:08:52;0.50;;;0.50;;
20705;SDS011;10514;49.468;11.044;2022-07-12T11:11:20;0.43;;;0.43;;
20705;SDS011;10514;49.468;11.044;2022-07-12T11:13:47;0.63;;;0.47;;
20705;SDS011;10514;49.468;11.044;2022-07-12T11:16:13;0.98;;;0.52;;
20705;SDS011;10514;49.468;11.044;2022-07-12T11:18:39;1.02;;;0.40;;
20705;SDS011;10514;49.468;11.044;2022-07-12T11:21:05;2.25;;;0.40;;
20705;SDS011;10514;49.468;11.044;2022-07-12T11:23:31;0.47;;;0.43;;
20705;SDS011;10514;49.468;11.044;2022-07-12T11:25:58;0.63;;;0.50;;
20705;SDS011;10514;49.468;11.044;2022-07-12T11:28:24;0.52;;;0.50;;
20705;SDS011;10514;49.468;11.044;2022-07-12T11:30:51;2.67;;;0.60;;
20705;SDS011;10514;49.468;11.044;2022-07-12T11:33:17;0.63;;;0.45;;
20705;SDS011;10514;49.468;11.044;2022-07-12T11:35:44;3.20;;;2.35;;
20705;SDS011;10514;49.468;11.044;2022-07-12T11:38:10;3.60;;;0.80;;
20705;SDS011;10514;49.468;11.044;2022-07-12T11:40:36;2.95;;;0.60;;
20705;SDS011;10514;49.468;11.044;2022-07-12T11:43:02;0.75;;;0.50;;
20705;SDS011;10514;49.468;11.044;2022-07-12T11:45:33;2.92;;;0.60;;
20705;SDS011;10514;49.468;11.044;2022-07-12T11:48:02;0.50;;;0.50;;
20705;SDS011;10514;49.468;11.044;2022-07-12T11:50:29;0.85;;;0.47;;
20705;SDS011;10514;49.468;11.044;2022-07-12T11:52:55;0.70;;;0.40;;
20705;SDS011;10514;49.468;11.044;2022-07-12T11:55:21;1.67;;;0.50;;
20705;SDS011;10514;49.468;11.044;2022-07-12T11:57:48;0.80;;;0.60;;
20705;SDS011;10514;49.468;11.044;2022-07-12T12:00:18;0.60;;;0.50;;
20705;SDS011;10514;49.468;11.044;2022-07-12T12:02:48;2.88;;;0.40;;
20705;SDS011;10514;49.468;11.044;2022-07-12T12:05:16;0.40;;;0.40;;
20705;SDS011;10514;49.468;11.044;2022-07-12T12:07:43;1.55;;;0.70;;
20705;SDS011;10514;49.468;11.044;2022-07-12T12:10:15;0.40;;;0.40;;
20705;SDS011;10514;49.468;11.044;2022-07-12T12:15:09;1.17;;;0.45;;
20705;SDS011;10514;49.468;11.044;2022-07-12T12:17:37;0.93;;;0.50;;
20705;SDS011;10514;49.468;11.044;2022-07-12T12:20:08;0.40;;;0.40;;
20705;SDS011;10514;49.468;11.044;2022-07-12T12:22:38;8.77;;;0.90;;
20705;SDS011;10514;49.468;11.044;2022-07-12T12:25:05;5.25;;;0.50;;
20705;SDS011;10514;49.468;11.044;2022-07-12T12:27:31;0.82;;;0.40;;
20705;SDS011;10514;49.468;11.044;2022-07-12T12:30:07;0.70;;;0.40;;
20705;SDS011;10514;49.468;11.044;2022-07-12T12:32:49;0.60;;;0.60;;
20705;SDS011;10514;49.468;11.044;2022-07-12T12:35:17;0.60;;;0.35;;
20705;SDS011;10514;49.468;11.044;2022-07-12T12:37:51;1.95;;;0.43;;
20705;SDS011;10514;49.468;11.044;2022-07-12T12:40:21;4.07;;;0.47;;
20705;SDS011;10514;49.468;11.044;2022-07-12T12:42:49;0.90;;;0.40;;
20705;SDS011;10514;49.468;11.044;2022-07-12T12:45:24;1.35;;;0.60;;
20705;SDS011;10514;49.468;11.044;2022-07-12T12:47:51;1.35;;;0.60;;
20705;SDS011;10514;49.468;11.044;2022-07-12T12:50:43;2.80;;;0.93;;
20705;SDS011;10514;49.468;11.044;2022-07-12T12:53:12;1.75;;;0.70;;
20705;SDS011;10514;49.468;11.044;2022-07-12T12:55:40;0.70;;;0.55;;
20705;SDS011;10514;49.468;11.044;2022-07-12T12:58:10;0.90;;;0.50;;
20705;SDS011;10514;49.468;11.044;2022-07-12T13:00:37;0.47;;;0.40;;
20705;SDS011;10514;49.468;11.044;2022-07-12T13:03:08;0.57;;;0.40;;
20705;SDS011;10514;49.468;11.044;2022-07-12T13:05:35;1.98;;;0.50;;
20705;SDS011;10514;49.468;11.044;2022-07-12T13:08:02;0.50;;;0.50;;
20705;SDS011;10514;49.468;11.044;2022-07-12T13:10:28;2.17;;;0.40;;
20705;SDS011;10514;49.468;11.044;2022-07-12T13:12:54;0.88;;;0.60;;
20705;SDS011;10514;49.468;11.044;2022-07-12T13:15:24;0.50;;;0.50;;
20705;SDS011;10514;49.468;11.044;2022-07-12T13:18:06;0.82;;;0.50;;
20705;SDS011;10514;49.468;11.044;2022-07-12T13:20:32;0.45;;;0.40;;
20705;SDS011;10514;49.468;11.044;2022-07-12T13:22:59;1.08;;;0.50;;
20705;SDS011;10514;49.468;11.044;2022-07-12T13:25:25;0.63;;;0.40;;
20705;SDS011;10514;49.468;11.044;2022-07-12T13:27:52;2.33;;;0.70;;
20705;SDS011;10514;49.468;11.044;2022-07-12T13:30:18;1.70;;;0.43;;
20705;SDS011;10514;49.468;11.044;2022-07-12T13:32:45;1.58;;;0.47;;
20705;SDS011;10514;49.468;11.044;2022-07-12T13:35:11;0.50;;;0.50;;
20705;SDS011;10514;49.468;11.044;2022-07-12T13:37:39;0.40;;;0.40;;
20705;SDS011;10514;49.468;11.044;2022-07-12T13:40:07;0.73;;;0.40;;
20705;SDS011;10514;49.468;11.044;2022-07-12T13:42:39;3.00;;;0.50;;
20705;SDS011;10514;49.468;11.044;2022-07-12T13:45:07;1.00;;;0.88;;
20705;SDS011;10514;49.468;11.044;2022-07-12T13:47:37;0.40;;;0.40;;
20705;SDS011;10514;49.468;11.044;2022-07-12T13:50:07;2.10;;;0.70;;
20705;SDS011;10514;49.468;11.044;2022-07-12T13:52:34;0.57;;;0.57;;
20705;SDS011;10514;49.468;11.044;2022-07-12T13:55:00;0.70;;;0.60;;
20705;SDS011;10514;49.468;11.044;2022-07-12T13:57:25;0.98;;;0.52;;
20705;SDS011;10514;49.468;11.044;2022-07-12T13:59:51;0.40;;;0.40;;
20705;SDS011;10514;49.468;11.044;2022-07-12T14:02:18;0.65;;;0.60;;
20705;SDS011;10514;49.468;11.044;2022-07-12T14:04:44;1.08;;;0.60;;
20705;SDS011;10514;49.468;11.044;2022-07-12T14:07:10;1.00;;;0.50;;
20705;SDS011;10514;49.468;11.044;2022-07-12T14:09:36;0.70;;;0.40;;
20705;SDS011;10514;49.468;11.044;2022-07-12T14:12:02;0.75;;;0.57;;
20705;SDS011;10514;49.468;11.044;2022-07-12T14:14:29;0.98;;;0.50;;
20705;SDS011;10514;49.468;11.044;2022-07-12T14:17:14;0.77;;;0.30;;
20705;SDS011;10514;49.468;11.044;2022-07-12T14:19:40;0.40;;;0.40;;
20705;SDS011;10514;49.468;11.044;2022-07-12T14:22:06;0.52;;;0.50;;
20705;SDS011;10514;49.468;11.044;2022-07-12T14:24:31;1.75;;;0.40;;
20705;SDS011;10514;49.468;11.044;2022-07-12T14:26:57;2.15;;;0.47;;
20705;SDS011;10514;49.468;11.044;2022-07-12T14:29:23;0.40;;;0.40;;
20705;SDS011;10514;49.468;11.044;2022-07-12T14:31:49;0.63;;;0.50;;
20705;SDS011;10514;49.468;11.044;2022-07-12T14:34:16;1.25;;;0.50;;
20705;SDS011;10514;49.468;11.044;2022-07-12T14:36:43;1.35;;;0.30;;
20705;SDS011;10514;49.468;11.044;2022-07-12T14:39:09;0.55;;;0.40;;
20705;SDS011;10514;49.468;11.044;2022-07-12T14:41:35;1.33;;;0.50;;
20705;SDS011;10514;49.468;11.044;2022-07-12T14:44:01;0.63;;;0.50;;
20705;SDS011;10514;49.468;11.044;2022-07-12T14:46:28;0.40;;;0.40;;
20705;SDS011;10514;49.468;11.044;2022-07-12T14:48:53;0.52;;;0.43;;
20705;SDS011;10514;49.468;11.044;2022-07-12T14:51:19;1.58;;;0.40;;
20705;SDS011;10514;49.468;11.044;2022-07-12T14:53:45;1.02;;;0.40;;
20705;SDS011;10514;49.468;11.044;2022-07-12T14:56:13;0.50;;;0.47;;